Time;durP1;ratioP1;P1;durP2;ratioP2;P2;SDS_P1;SDS_P2;PMS_P1;PMS_P2;Temp;Humidity;BMP_temperature;BMP_pressure;BME280_temperature;BME280_humidity;BME280_pressure;Samples;Min_cycle;Max_cycle;Signal;HPM_P1;HPM_P2
2021/10/11 05:02:52;;;;;;;1999.90;999.90;;;;;;;;;;4972685;28;20224;-71
2021/10/11 05:05:37;;;;;;;1999.90;999.90;;;;;;;;;;4974912;28;20303;-71
2021/10/11 05:08:22;;;;;;;1999.90;999.90;;;;;;;;;;4974828;28;20310;-71
2021/10/11 05:11:09;;;;;;;1999.90;999.90;;;;;;;;;;4975220;28;20227;-71
2021/10/11 05:13:54;;;;;;;1999.90;999.90;;;;;;;;;;4974420;28;20375;-71
2021/10/11 05:16:39;;;;;;;1999.90;999.90;;;;;;;;;;4974595;28;20207;-71
2021/10/11 05:19:27;;;;;;;1999.90;999.90;;;;;;;;;;4974599;28;20207;-71
2021/10/11 05:22:12;;;;;;;1999.90;999.90;;;;;;;;;;4973540;28;20231;-71
2021/10/11 05:24:56;;;;;;;1999.90;999.90;;;;;;;;;;4974482;28;20223;-71
2021/10/11 05:27:41;;;;;;;1999.90;999.90;;;;;;;;;;4974959;28;20215;-71
2021/10/11 05:30:26;;;;;;;1999.90;999.90;;;;;;;;;;4974351;28;20219;-71
2021/10/11 05:33:11;;;;;;;1999.90;999.90;;;;;;;;;;4973845;28;20211;-71
2021/10/11 05:35:58;;;;;;;1999.90;999.90;;;;;;;;;;4974397;28;20281;-71
2021/10/11 05:38:43;;;;;;;1999.90;999.90;;;;;;;;;;4974347;28;20215;-71
2021/10/11 05:41:27;;;;;;;1999.90;999.90;;;;;;;;;;4974059;28;20232;-71
2021/10/11 05:44:12;;;;;;;1999.90;999.90;;;;;;;;;;4974220;28;20227;-71
2021/10/11 05:46:57;;;;;;;1999.90;999.90;;;;;;;;;;4974156;28;20188;-70
2021/10/11 05:49:44;;;;;;;1999.90;999.90;;;;;;;;;;4973890;28;20594;-71
2021/10/11 05:52:30;;;;;;;1999.90;999.90;;;;;;;;;;4973261;28;20227;-71
2021/10/11 05:55:15;;;;;;;1999.90;999.90;;;;;;;;;;4973784;28;20268;-71
2021/10/11 05:58:00;;;;;;;1999.90;999.90;;;;;;;;;;4973937;28;20207;-70
2021/10/11 06:00:45;;;;;;;1999.90;999.90;;;;;;;;;;4973668;28;20224;-72
2021/10/11 06:03:30;;;;;;;1999.90;999.90;;;;;;;;;;4973009;28;20264;-72
2021/10/11 06:06:14;;;;;;;1999.90;999.90;;;;;;;;;;4973299;28;20210;-72
2021/10/11 06:09:01;;;;;;;1999.90;999.90;;;;;;;;;;4973762;28;20227;-71
2021/10/11 06:11:46;;;;;;;1999.90;999.90;;;;;;;;;;4972685;28;20230;-72
2021/10/11 06:14:31;;;;;;;1999.90;999.90;;;;;;;;;;4973424;28;20266;-72
2021/10/11 06:17:16;;;;;;;1999.90;999.90;;;;;;;;;;4973331;28;20415;-71
2021/10/11 06:20:01;;;;;;;1999.90;999.90;;;;;;;;;;4973410;28;20534;-71
2021/10/11 06:22:46;;;;;;;1999.90;999.90;;;;;;;;;;4972739;28;20211;-72
2021/10/11 06:25:32;;;;;;;1999.90;999.90;;;;;;;;;;4973452;28;20208;-72
2021/10/11 06:28:19;;;;;;;1999.90;999.90;;;;;;;;;;4973281;28;20235;-71
2021/10/11 06:31:05;;;;;;;1999.90;999.90;;;;;;;;;;4973289;28;20306;-72
2021/10/11 06:33:50;;;;;;;1999.90;999.90;;;;;;;;;;4972646;28;20588;-71
2021/10/11 06:36:35;;;;;;;1999.90;999.90;;;;;;;;;;4973133;28;20208;-70
2021/10/11 06:39:20;;;;;;;1999.90;999.90;;;;;;;;;;4973151;28;20228;-72
2021/10/11 06:42:07;;;;;;;1999.90;999.90;;;;;;;;;;4971404;28;20490;-71
2021/10/11 06:44:52;;;;;;;1999.90;999.90;;;;;;;;;;4973076;28;20327;-72
2021/10/11 06:47:36;;;;;;;1999.90;999.90;;;;;;;;;;4973025;28;20694;-72
2021/10/11 06:50:21;;;;;;;1999.90;999.90;;;;;;;;;;4972795;28;20211;-72
2021/10/11 06:53:06;;;;;;;1999.90;999.90;;;;;;;;;;4972316;28;20298;-71
2021/10/11 06:55:51;;;;;;;1999.90;999.90;;;;;;;;;;4972630;28;20231;-71
2021/10/11 06:58:37;;;;;;;1999.90;999.90;;;;;;;;;;4972905;28;20702;-71
2021/10/11 07:01:22;;;;;;;1999.90;999.90;;;;;;;;;;4972482;28;20712;-71
2021/10/11 07:04:07;;;;;;;1999.90;999.90;;;;;;;;;;4972768;28;20761;-71
2021/10/11 07:06:52;;;;;;;1999.90;999.90;;;;;;;;;;4972719;28;20212;-71
2021/10/11 07:09:37;;;;;;;1999.90;999.90;;;;;;;;;;4972672;28;20324;-71
2021/10/11 07:12:22;;;;;;;1999.90;999.90;;;;;;;;;;4971818;28;20717;-72
2021/10/11 07:15:10;;;;;;;1999.90;999.90;;;;;;;;;;4972413;28;20295;-71
2021/10/11 07:17:54;;;;;;;1999.90;999.90;;;;;;;;;;4971537;28;20352;-71
2021/10/11 07:20:43;;;;;;;1999.90;999.90;;;;;;;;;;4972234;28;20236;-71
2021/10/11 07:23:29;;;;;;;1999.90;999.90;;;;;;;;;;4971699;28;20199;-71
2021/10/11 07:26:14;;;;;;;1999.90;999.90;;;;;;;;;;4972359;28;20196;-71
2021/10/11 07:28:59;;;;;;;1999.90;999.90;;;;;;;;;;4972289;28;20258;-71
2021/10/11 07:31:45;;;;;;;1999.90;999.90;;;;;;;;;;4971503;28;20236;-71
2021/10/11 07:34:30;;;;;;;1999.90;999.90;;;;;;;;;;4970667;28;20522;-71
2021/10/11 07:37:14;;;;;;;1999.90;999.90;;;;;;;;;;4972195;28;20356;-72
2021/10/11 07:39:59;;;;;;;1999.90;999.90;;;;;;;;;;4972054;28;20636;-71
2021/10/11 07:42:44;;;;;;;1999.90;999.90;;;;;;;;;;4971425;28;20227;-71
2021/10/11 07:45:29;;;;;;;1999.90;999.90;;;;;;;;;;4972423;28;20208;-72
2021/10/11 07:48:16;;;;;;;1999.90;999.90;;;;;;;;;;4972255;28;20215;-72
2021/10/11 07:51:01;;;;;;;1999.90;999.90;;;;;;;;;;4971892;28;20230;-71
2021/10/11 07:53:46;;;;;;;1999.90;999.90;;;;;;;;;;4971376;28;20204;-71
2021/10/11 07:56:31;;;;;;;1999.90;999.90;;;;;;;;;;4971381;28;20826;-72
2021/10/11 07:59:16;;;;;;;1999.90;999.90;;;;;;;;;;4971957;28;20222;-71
2021/10/11 08:02:01;;;;;;;1999.90;999.90;;;;;;;;;;4956519;28;20559;-72
2021/10/11 08:04:47;;;;;;;1999.90;999.90;;;;;;;;;;4954893;28;20208;-71
2021/10/11 08:07:32;;;;;;;1999.90;999.90;;;;;;;;;;4957851;28;20216;-72
2021/10/11 08:10:17;;;;;;;1999.90;999.90;;;;;;;;;;4955589;28;20346;-71
2021/10/11 08:13:03;;;;;;;1999.90;999.90;;;;;;;;;;4951530;28;20213;-72
2021/10/11 08:15:48;;;;;;;1999.90;999.90;;;;;;;;;;4966414;28;20228;-72
2021/10/11 08:18:33;;;;;;;1999.90;999.90;;;;;;;;;;4965391;28;20217;-71
2021/10/11 08:21:19;;;;;;;1999.90;999.90;;;;;;;;;;4968310;28;20235;-71
2021/10/11 08:24:05;;;;;;;1999.90;999.90;;;;;;;;;;4970157;28;20208;-70
2021/10/11 08:26:50;;;;;;;1999.90;999.90;;;;;;;;;;4978824;28;20203;-71
2021/10/11 08:29:35;;;;;;;1999.90;999.90;;;;;;;;;;4976284;28;20214;-69
2021/10/11 08:32:20;;;;;;;1999.90;999.90;;;;;;;;;;4979908;28;20276;-70
2021/10/11 08:35:05;;;;;;;1999.90;999.90;;;;;;;;;;4994829;28;20275;-72
2021/10/11 08:37:52;;;;;;;1999.90;999.90;;;;;;;;;;4979801;28;20362;-72
2021/10/11 08:40:36;;;;;;;1999.90;999.90;;;;;;;;;;4959246;28;20214;-71
2021/10/11 08:43:22;;;;;;;1999.90;999.90;;;;;;;;;;4960055;28;20207;-70
2021/10/11 08:46:07;;;;;;;1999.90;999.90;;;;;;;;;;4955844;28;20230;-71
2021/10/11 08:48:52;;;;;;;1999.90;999.90;;;;;;;;;;4955464;29;20417;-71
2021/10/11 08:51:36;;;;;;;1999.90;999.90;;;;;;;;;;4955455;29;20229;-71
2021/10/11 08:54:23;;;;;;;1999.90;999.90;;;;;;;;;;4955913;29;20207;-71
2021/10/11 08:57:18;;;;;;;1999.90;999.90;;;;;;;;;;4962934;28;20339;-70
2021/10/11 09:00:08;;;;;;;1999.90;999.90;;;;;;;;;;4957890;28;20565;-71
2021/10/11 09:02:53;;;;;;;1999.90;999.90;;;;;;;;;;4966869;28;20270;-70
2021/10/11 09:05:40;;;;;;;1999.90;999.90;;;;;;;;;;4956337;28;20571;-71
2021/10/11 09:08:30;;;;;;;1999.90;999.90;;;;;;;;;;4955815;29;20639;-72
2021/10/11 09:11:18;;;;;;;1999.90;999.90;;;;;;;;;;4955582;29;20111;-71
2021/10/11 09:14:04;;;;;;;1999.90;999.90;;;;;;;;;;4955945;29;20804;-72
2021/10/11 09:16:56;;;;;;;1999.90;999.90;;;;;;;;;;4955494;29;20235;-70
2021/10/11 09:19:47;;;;;;;1999.90;999.90;;;;;;;;;;4955852;29;20259;-71
2021/10/11 09:22:32;;;;;;;1999.90;999.90;;;;;;;;;;4954538;28;20295;-70
2021/10/11 09:25:18;;;;;;;1999.90;999.90;;;;;;;;;;4955480;29;20299;-71
2021/10/11 09:28:06;;;;;;;1999.90;999.90;;;;;;;;;;4953908;28;20238;-71
2021/10/11 09:30:51;;;;;;;1999.90;999.90;;;;;;;;;;4955817;28;20274;-71
2021/10/11 09:33:36;;;;;;;1999.90;999.90;;;;;;;;;;4973734;28;20207;-71
2021/10/11 09:36:21;;;;;;;1999.90;999.90;;;;;;;;;;4963249;28;20235;-71
2021/10/11 09:39:06;;;;;;;1999.90;999.90;;;;;;;;;;4954317;28;20345;-70
2021/10/11 09:41:51;;;;;;;1999.90;999.90;;;;;;;;;;4961170;28;20600;-72
2021/10/11 09:44:38;;;;;;;1999.90;999.90;;;;;;;;;;4962215;28;20232;-72
2021/10/11 09:47:29;;;;;;;1999.90;999.90;;;;;;;;;;4954603;29;20578;-71
2021/10/11 09:50:16;;;;;;;1999.90;999.90;;;;;;;;;;4955227;28;20603;-72
2021/10/11 09:53:02;;;;;;;1999.90;999.90;;;;;;;;;;4954132;29;20216;-72
2021/10/11 09:55:47;;;;;;;1999.90;999.90;;;;;;;;;;4954549;29;20311;-71
2021/10/11 09:58:32;;;;;;;1999.90;999.90;;;;;;;;;;4954552;29;20798;-72
2021/10/11 10:01:18;;;;;;;1999.90;999.90;;;;;;;;;;4954344;29;20240;-72
2021/10/11 10:04:04;;;;;;;1999.90;999.90;;;;;;;;;;4957315;28;20213;-71
2021/10/11 10:06:50;;;;;;;1999.90;999.90;;;;;;;;;;4957632;28;20312;-71
2021/10/11 10:09:38;;;;;;;1999.90;999.90;;;;;;;;;;4957353;28;20217;-72
2021/10/11 10:12:23;;;;;;;1999.90;999.90;;;;;;;;;;4953443;29;20239;-71
2021/10/11 10:15:09;;;;;;;1999.90;999.90;;;;;;;;;;4954180;29;20258;-72
2021/10/11 10:18:03;;;;;;;1999.90;999.90;;;;;;;;;;4954303;29;20271;-72
2021/10/11 10:20:52;;;;;;;1999.90;999.90;;;;;;;;;;4954006;29;20312;-71
2021/10/11 10:23:38;;;;;;;1999.90;999.90;;;;;;;;;;4953286;29;20891;-71
2021/10/11 10:26:26;;;;;;;1999.90;999.90;;;;;;;;;;4953971;29;20200;-71
2021/10/11 10:29:13;;;;;;;1999.90;999.90;;;;;;;;;;4954147;29;20208;-72
2021/10/11 10:32:05;;;;;;;1999.90;999.90;;;;;;;;;;4953196;29;20612;-72
2021/10/11 10:35:01;;;;;;;1999.90;999.90;;;;;;;;;;4953607;28;20295;-71
2021/10/11 10:37:46;;;;;;;1999.90;999.90;;;;;;;;;;4953803;29;20700;-72
2021/10/11 10:40:33;;;;;;;1999.90;999.90;;;;;;;;;;4953549;29;20204;-73
2021/10/11 10:43:19;;;;;;;1999.90;999.90;;;;;;;;;;4955642;28;20244;-72
2021/10/11 10:46:07;;;;;;;1999.90;999.90;;;;;;;;;;4958023;28;20220;-70
2021/10/11 10:48:53;;;;;;;1999.90;999.90;;;;;;;;;;4956849;28;20220;-71
2021/10/11 10:51:43;;;;;;;1999.90;999.90;;;;;;;;;;4956698;28;20233;-69
2021/10/11 10:54:35;;;;;;;1999.90;999.90;;;;;;;;;;4952683;28;20196;-71
2021/10/11 10:57:21;;;;;;;1999.90;999.90;;;;;;;;;;4955009;28;20240;-70
2021/10/11 11:00:13;;;;;;;1999.90;999.90;;;;;;;;;;4967545;28;20204;-70
2021/10/11 11:02:57;;;;;;;1999.90;999.90;;;;;;;;;;4958067;28;20678;-71
2021/10/11 11:05:43;;;;;;;1999.90;999.90;;;;;;;;;;4953069;28;20213;-70
2021/10/11 11:08:30;;;;;;;1999.90;999.90;;;;;;;;;;4952725;28;20328;-70
2021/10/11 11:11:16;;;;;;;1999.90;999.90;;;;;;;;;;4967226;28;20236;-71
2021/10/11 11:14:01;;;;;;;1999.90;999.90;;;;;;;;;;4960732;28;20216;-70
2021/10/11 11:16:51;;;;;;;1999.90;999.90;;;;;;;;;;4954926;28;20781;-71
2021/10/11 11:19:37;;;;;;;1999.90;999.90;;;;;;;;;;4952854;28;20317;-72
2021/10/11 11:22:27;;;;;;;1999.90;999.90;;;;;;;;;;4962888;28;20232;-68
2021/10/11 11:25:14;;;;;;;1999.90;999.90;;;;;;;;;;4952917;29;20255;-70
2021/10/11 11:27:59;;;;;;;1999.90;999.90;;;;;;;;;;4952926;28;20237;-70
2021/10/11 11:30:45;;;;;;;1999.90;999.90;;;;;;;;;;4952634;29;20403;-71
2021/10/11 11:33:31;;;;;;;1999.90;999.90;;;;;;;;;;4953314;28;20216;-70
2021/10/11 11:36:17;;;;;;;1999.90;999.90;;;;;;;;;;4951948;28;20223;-70
2021/10/11 11:39:11;;;;;;;1999.90;999.90;;;;;;;;;;4953829;28;20479;-71
2021/10/11 11:41:57;;;;;;;1999.90;999.90;;;;;;;;;;4952276;28;20227;-69
2021/10/11 11:44:42;;;;;;;1999.90;999.90;;;;;;;;;;4951914;28;20271;-70
2021/10/11 11:47:29;;;;;;;1999.90;999.90;;;;;;;;;;4964862;28;20213;-71
2021/10/11 11:50:18;;;;;;;1999.90;999.90;;;;;;;;;;4954606;28;20216;-71
2021/10/11 11:53:04;;;;;;;1999.90;999.90;;;;;;;;;;4961239;28;20413;-70
2021/10/11 11:55:51;;;;;;;1999.90;999.90;;;;;;;;;;4952167;29;20831;-70
2021/10/11 11:58:38;;;;;;;1999.90;999.90;;;;;;;;;;4957307;28;20303;-70
2021/10/11 12:01:26;;;;;;;1999.90;999.90;;;;;;;;;;4959582;28;20619;-70
2021/10/11 12:04:11;;;;;;;1999.90;999.90;;;;;;;;;;4960446;28;20348;-71
2021/10/11 12:07:02;;;;;;;1999.90;999.90;;;;;;;;;;4951988;28;20213;-71
2021/10/11 12:09:49;;;;;;;1999.90;999.90;;;;;;;;;;4960889;28;20722;-70
2021/10/11 12:12:35;;;;;;;1999.90;999.90;;;;;;;;;;4953095;28;20610;-71
2021/10/11 12:15:22;;;;;;;1999.90;999.90;;;;;;;;;;4953820;28;20220;-71
2021/10/11 12:18:08;;;;;;;1999.90;999.90;;;;;;;;;;4959215;28;20204;-71
2021/10/11 12:20:53;;;;;;;1999.90;999.90;;;;;;;;;;4952234;29;20224;-70
2021/10/11 12:23:39;;;;;;;1999.90;999.90;;;;;;;;;;4951288;28;20592;-71
2021/10/11 12:26:25;;;;;;;1999.90;999.90;;;;;;;;;;4954821;28;20329;-70
2021/10/11 12:29:11;;;;;;;1999.90;999.90;;;;;;;;;;4952293;29;20232;-72
2021/10/11 12:31:58;;;;;;;1999.90;999.90;;;;;;;;;;4951342;28;20228;-70
2021/10/11 12:34:45;;;;;;;1999.90;999.90;;;;;;;;;;4952117;29;20217;-71
2021/10/11 12:37:35;;;;;;;1999.90;999.90;;;;;;;;;;4955373;28;20604;-70
2021/10/11 12:40:21;;;;;;;1999.90;999.90;;;;;;;;;;4951083;29;20213;-69
2021/10/11 12:43:13;;;;;;;1999.90;999.90;;;;;;;;;;4949973;29;20284;-71
2021/10/11 12:46:01;;;;;;;1999.90;999.90;;;;;;;;;;4950841;29;20305;-72
2021/10/11 12:48:53;;;;;;;1999.90;999.90;;;;;;;;;;4950737;28;20581;-71
2021/10/11 12:51:39;;;;;;;1999.90;999.90;;;;;;;;;;4957457;28;20231;-68
2021/10/11 12:54:28;;;;;;;1999.90;999.90;;;;;;;;;;4969672;28;20799;-71
2021/10/11 12:57:13;;;;;;;1999.90;999.90;;;;;;;;;;4970145;28;20227;-72
2021/10/11 12:59:58;;;;;;;1999.90;999.90;;;;;;;;;;4971112;28;20698;-70
2021/10/11 13:02:43;;;;;;;1999.90;999.90;;;;;;;;;;4958777;28;20296;-68
2021/10/11 13:05:29;;;;;;;1999.90;999.90;;;;;;;;;;4961708;28;20292;-64
2021/10/11 13:08:15;;;;;;;1999.90;999.90;;;;;;;;;;4950935;28;20208;-68
2021/10/11 13:11:00;;;;;;;1999.90;999.90;;;;;;;;;;4951351;28;20287;-63
2021/10/11 13:13:44;;;;;;;1999.90;999.90;;;;;;;;;;4959954;28;20251;-67
2021/10/11 13:16:29;;;;;;;1999.90;999.90;;;;;;;;;;4956672;28;20272;-66
2021/10/11 13:19:14;;;;;;;1999.90;999.90;;;;;;;;;;4962803;28;20671;-63
2021/10/11 13:22:00;;;;;;;1999.90;999.90;;;;;;;;;;4958095;28;20296;-68
2021/10/11 13:24:46;;;;;;;1999.90;999.90;;;;;;;;;;4954793;29;20207;-68
2021/10/11 13:27:31;;;;;;;1999.90;999.90;;;;;;;;;;4954978;29;20215;-68
2021/10/11 13:30:39;;;;;;;1999.90;999.90;;;;;;;;;;4954986;29;20218;-67
2021/10/11 14:28:22;;;;;;;1999.90;999.90;;;;;;;;;;4956457;28;20274;-69
2021/10/11 14:31:15;;;;;;;1999.90;999.90;;;;;;;;;;4956582;28;20417;-67
2021/10/11 14:34:15;;;;;;;1999.90;999.90;;;;;;;;;;4969527;28;20223;-67
2021/10/11 15:59:50;;;;;;;1999.90;999.90;;;;;;;;;;4951711;28;20749;-66
2021/10/11 16:02:37;;;;;;;1999.90;999.90;;;;;;;;;;4965366;28;20245;-69
2021/10/11 16:05:22;;;;;;;1999.90;999.90;;;;;;;;;;4967066;28;20206;-66
2021/10/11 16:08:08;;;;;;;1999.90;999.90;;;;;;;;;;4962536;28;20199;-67
2021/10/11 16:10:53;;;;;;;1999.90;999.90;;;;;;;;;;4967432;28;20245;-67
2021/10/11 16:13:38;;;;;;;1999.90;999.90;;;;;;;;;;4951392;28;20433;-68
2021/10/11 16:16:24;;;;;;;1999.90;999.90;;;;;;;;;;4966230;28;20217;-68
2021/10/11 16:19:09;;;;;;;1999.90;999.90;;;;;;;;;;4969576;28;20689;-67
2021/10/11 16:21:54;;;;;;;1999.90;999.90;;;;;;;;;;4968908;28;20233;-67
2021/10/11 16:24:39;;;;;;;1999.90;999.90;;;;;;;;;;4961546;28;20210;-67
2021/10/11 16:27:24;;;;;;;1999.90;999.90;;;;;;;;;;4960172;28;20343;-68
2021/10/11 16:30:09;;;;;;;1999.90;999.90;;;;;;;;;;4955004;28;20215;-68
2021/10/11 16:32:57;;;;;;;1999.90;999.90;;;;;;;;;;4951316;29;20228;-68
2021/10/11 16:35:43;;;;;;;1999.90;999.90;;;;;;;;;;4968158;28;20338;-71
2021/10/11 16:38:28;;;;;;;1999.90;999.90;;;;;;;;;;4968629;28;20828;-68
2021/10/11 16:41:14;;;;;;;1999.90;999.90;;;;;;;;;;4955683;28;20366;-68
2021/10/11 16:43:59;;;;;;;1999.90;999.90;;;;;;;;;;4950706;28;20217;-65
2021/10/11 16:46:43;;;;;;;1999.90;999.90;;;;;;;;;;4956086;28;20713;-67
2021/10/11 16:49:30;;;;;;;1999.90;999.90;;;;;;;;;;4968924;28;20215;-69
2021/10/11 16:52:15;;;;;;;1999.90;999.90;;;;;;;;;;4955197;29;20252;-68
2021/10/11 16:55:00;;;;;;;1999.90;999.90;;;;;;;;;;4955308;28;20214;-68
2021/10/11 16:57:45;;;;;;;1999.90;999.90;;;;;;;;;;4958093;28;20355;-67
2021/10/11 17:00:30;;;;;;;1999.90;999.90;;;;;;;;;;4955184;28;20215;-70
2021/10/11 17:03:15;;;;;;;1999.90;999.90;;;;;;;;;;4954608;28;20601;-70
2021/10/11 17:06:02;;;;;;;1999.90;999.90;;;;;;;;;;4958326;28;20236;-68
2021/10/11 17:08:47;;;;;;;1999.90;999.90;;;;;;;;;;4963435;28;20216;-67
2021/10/11 17:11:32;;;;;;;1999.90;999.90;;;;;;;;;;4960597;28;20581;-68
2021/10/11 17:14:17;;;;;;;1999.90;999.90;;;;;;;;;;4954956;28;20786;-67
2021/10/11 17:17:02;;;;;;;1999.90;999.90;;;;;;;;;;4957308;28;20705;-69
2021/10/11 17:19:47;;;;;;;1999.90;999.90;;;;;;;;;;4957415;28;20337;-67
2021/10/11 17:22:33;;;;;;;1999.90;999.90;;;;;;;;;;4960412;28;20227;-68
2021/10/11 17:25:19;;;;;;;1999.90;999.90;;;;;;;;;;4957368;28;20593;-67
2021/10/11 17:28:04;;;;;;;1999.90;999.90;;;;;;;;;;4971401;28;20403;-67
2021/10/11 17:30:48;;;;;;;1999.90;999.90;;;;;;;;;;4955741;28;20733;-68
2021/10/11 17:33:35;;;;;;;1999.90;999.90;;;;;;;;;;4955324;28;20222;-67
2021/10/11 17:36:20;;;;;;;1999.90;999.90;;;;;;;;;;4974217;28;20211;-67
2021/10/11 17:39:06;;;;;;;1999.90;999.90;;;;;;;;;;4964860;28;20684;-68
2021/10/11 17:41:51;;;;;;;1999.90;999.90;;;;;;;;;;4973408;28;20236;-68
2021/10/11 17:44:36;;;;;;;1999.90;999.90;;;;;;;;;;4965657;28;20213;-68
2021/10/11 17:47:21;;;;;;;1999.90;999.90;;;;;;;;;;4958106;28;20358;-68
2021/10/11 17:50:07;;;;;;;1999.90;999.90;;;;;;;;;;4965390;28;20208;-69
2021/10/11 17:52:55;;;;;;;1999.90;999.90;;;;;;;;;;4959473;28;20218;-69
2021/10/11 17:55:42;;;;;;;1999.90;999.90;;;;;;;;;;4957595;28;20303;-67
2021/10/11 17:58:26;;;;;;;1999.90;999.90;;;;;;;;;;4956567;28;20454;-67
2021/10/11 18:01:11;;;;;;;1999.90;999.90;;;;;;;;;;4962715;28;20253;-67
2021/10/11 18:03:56;;;;;;;1999.90;999.90;;;;;;;;;;4958102;28;20218;-68
2021/10/11 18:06:41;;;;;;;1999.90;999.90;;;;;;;;;;4954284;29;20360;-68
2021/10/11 18:09:26;;;;;;;1999.90;999.90;;;;;;;;;;4954464;29;20228;-67
2021/10/11 18:12:12;;;;;;;1999.90;999.90;;;;;;;;;;4959116;28;21120;-68
2021/10/11 18:14:57;;;;;;;1999.90;999.90;;;;;;;;;;4960016;28;20269;-68
2021/10/11 18:17:43;;;;;;;1999.90;999.90;;;;;;;;;;4973399;28;20331;-67
2021/10/11 18:20:27;;;;;;;1999.90;999.90;;;;;;;;;;4973419;28;20205;-67
2021/10/11 18:23:14;;;;;;;1999.90;999.90;;;;;;;;;;4968406;28;20211;-67
2021/10/11 18:26:00;;;;;;;1999.90;999.90;;;;;;;;;;4961739;28;20212;-66
2021/10/11 18:28:46;;;;;;;1999.90;999.90;;;;;;;;;;4964888;28;20292;-67
2021/10/11 18:31:31;;;;;;;1999.90;999.90;;;;;;;;;;4966589;28;20239;-68
2021/10/11 18:34:15;;;;;;;1999.90;999.90;;;;;;;;;;4964503;28;20235;-69
2021/10/11 18:37:00;;;;;;;1999.90;999.90;;;;;;;;;;4972877;28;20212;-67
2021/10/11 18:39:46;;;;;;;1999.90;999.90;;;;;;;;;;4965766;28;20340;-67
2021/10/11 18:42:31;;;;;;;1999.90;999.90;;;;;;;;;;4955491;28;20452;-68
2021/10/11 18:45:18;;;;;;;1999.90;999.90;;;;;;;;;;4956937;28;20225;-69
2021/10/11 18:48:03;;;;;;;1999.90;999.90;;;;;;;;;;4957081;28;20209;-69
2021/10/11 18:50:49;;;;;;;1999.90;999.90;;;;;;;;;;4953419;29;20236;-67
2021/10/11 18:53:36;;;;;;;1999.90;999.90;;;;;;;;;;4952799;29;20260;-66
2021/10/11 18:56:21;;;;;;;1999.90;999.90;;;;;;;;;;4955861;28;20213;-66
2021/10/11 18:59:06;;;;;;;1999.90;999.90;;;;;;;;;;4953108;29;20232;-68
2021/10/11 19:01:55;;;;;;;1999.90;999.90;;;;;;;;;;4952911;28;20615;-68
2021/10/11 19:04:40;;;;;;;1999.90;999.90;;;;;;;;;;4952190;28;20241;-67
2021/10/11 19:07:24;;;;;;;1999.90;999.90;;;;;;;;;;4953658;28;20264;-69
2021/10/11 19:10:10;;;;;;;1999.90;999.90;;;;;;;;;;4952996;29;20290;-67
2021/10/11 19:12:57;;;;;;;1999.90;999.90;;;;;;;;;;4956447;28;20268;-67
2021/10/11 19:15:42;;;;;;;1999.90;999.90;;;;;;;;;;4953043;29;20217;-68
2021/10/11 19:18:29;;;;;;;1999.90;999.90;;;;;;;;;;4969932;28;20234;-66
2021/10/11 19:21:14;;;;;;;1999.90;999.90;;;;;;;;;;4970841;28;20275;-65
2021/10/11 19:23:59;;;;;;;1999.90;999.90;;;;;;;;;;4954805;28;20232;-67
2021/10/11 19:26:44;;;;;;;1999.90;999.90;;;;;;;;;;4969533;28;20719;-68
2021/10/11 19:29:29;;;;;;;1999.90;999.90;;;;;;;;;;4962446;28;20279;-66
2021/10/11 19:32:15;;;;;;;1999.90;999.90;;;;;;;;;;4957271;28;20256;-69
2021/10/11 19:35:01;;;;;;;1999.90;999.90;;;;;;;;;;4955789;28;20293;-68
2021/10/11 19:37:46;;;;;;;1999.90;999.90;;;;;;;;;;4959035;28;20235;-67
2021/10/11 19:40:31;;;;;;;1999.90;999.90;;;;;;;;;;4959572;28;20698;-67
2021/10/11 19:43:16;;;;;;;1999.90;999.90;;;;;;;;;;4957927;28;20216;-67
2021/10/11 19:46:01;;;;;;;1999.90;999.90;;;;;;;;;;4958316;28;20208;-67
2021/10/11 19:48:46;;;;;;;1999.90;999.90;;;;;;;;;;4954539;28;20643;-69
2021/10/11 19:51:33;;;;;;;1999.90;999.90;;;;;;;;;;4956402;28;20231;-70
2021/10/11 19:54:18;;;;;;;1999.90;999.90;;;;;;;;;;4953759;28;20224;-68
2021/10/11 19:57:03;;;;;;;1999.90;999.90;;;;;;;;;;4959047;28;20431;-70
2021/10/11 19:59:48;;;;;;;1999.90;999.90;;;;;;;;;;4968608;28;20714;-67
2021/10/11 20:02:36;;;;;;;1999.90;999.90;;;;;;;;;;4951471;28;20389;-67
2021/10/11 20:05:21;;;;;;;1999.90;999.90;;;;;;;;;;4952536;29;20213;-68
2021/10/11 20:08:07;;;;;;;1999.90;999.90;;;;;;;;;;4951603;29;20319;-67
2021/10/11 20:10:52;;;;;;;1999.90;999.90;;;;;;;;;;4952132;29;20228;-70
2021/10/11 20:13:37;;;;;;;1999.90;999.90;;;;;;;;;;4951656;29;20212;-69
2021/10/11 20:16:22;;;;;;;1999.90;999.90;;;;;;;;;;4951232;29;20213;-69
2021/10/11 20:19:07;;;;;;;1999.90;999.90;;;;;;;;;;4954468;28;20335;-68
2021/10/11 20:21:52;;;;;;;1999.90;999.90;;;;;;;;;;4965487;28;20282;-69
2021/10/11 20:24:38;;;;;;;1999.90;999.90;;;;;;;;;;4961506;28;20443;-69
2021/10/11 20:27:23;;;;;;;1999.90;999.90;;;;;;;;;;4961852;28;20946;-69
2021/10/11 20:30:08;;;;;;;1999.90;999.90;;;;;;;;;;4955538;28;20238;-71
2021/10/11 20:32:58;;;;;;;1999.90;999.90;;;;;;;;;;4954916;28;20703;-69
2021/10/11 20:35:43;;;;;;;1999.90;999.90;;;;;;;;;;4972260;28;20203;-68
2021/10/11 20:38:28;;;;;;;1999.90;999.90;;;;;;;;;;4973140;28;20301;-69
2021/10/11 20:41:14;;;;;;;1999.90;999.90;;;;;;;;;;4973639;28;20742;-68
2021/10/11 20:43:59;;;;;;;1999.90;999.90;;;;;;;;;;4955560;28;20581;-69
2021/10/11 20:46:44;;;;;;;1999.90;999.90;;;;;;;;;;4955452;28;20265;-68
2021/10/11 20:49:30;;;;;;;1999.90;999.90;;;;;;;;;;4955488;28;20217;-70
2021/10/11 20:52:15;;;;;;;1999.90;999.90;;;;;;;;;;4966223;28;20239;-69
2021/10/11 20:55:00;;;;;;;1999.90;999.90;;;;;;;;;;4955332;28;20710;-71
2021/10/11 20:57:46;;;;;;;1999.90;999.90;;;;;;;;;;4955662;29;20268;-70
